Aérodrome :
LOGIN :

S'inscrire | Disclaimer

   EN    FR    IT 

 










Légende :    VFR   VFR Marginal   IFR   IFR Intensif   IFR Très Intensif
Visi : 
Plafond : 
>= 8 km
>= 3000ft
5 à 8 km
1000 à 3000 ft
1500m à 5 km
500 à 1000 ft
800 à 1500m
200 à 500 ft
< 800m
< 200 ft
Symboles :   Orages  Brouillard  Fortes neiges  Fortes précipitations  Vent > 20 kt
SIGMETs :   Divers  Orages  Givrage  Turbulence  Onde Orograph.  Cendres Volcan.







- Altitude de l'aérodrome : 485 ft
- Code IATA : QSA


LELL - Sabadell

DERNIER METAR :
  • 232230Z AUTO 26003KT 210V280 CAVOK 23/21 Q1017

METARs EXPIRÉS :
  • 232200Z AUTO 28002KT CAVOK 23/20 Q1017
  • 232130Z AUTO 27003KT CAVOK 23/20 Q1017
  • 232100Z AUTO 26004KT CAVOK 23/19 Q1017
  • 232030Z AUTO 26004KT CAVOK 23/19 Q1017
  • 232000Z AUTO 28003KT 250V320 CAVOK 23/20 Q1017

TAF TAF LELL
Valide du 23 à 15h jusqu'au 24 à 15h UTC


231400Z 2315/2415 12010KT 9999 FEW030 TX33/2413Z TN20/2405Z
PROB40
TEMPO 2315/2320 TSRA FEW025CB BKN030
TEMPO 2315/2317 17010KT
BECMG 2317/2319 VRB04KT
BECMG 2410/2412 18010KT
Pas de NOTAMs connus pour ce terrain.
1 SIGMET publié pour la FIR Barcelona (LECB) :
 
Orages noyés dans la masse
LECB SIGMET 5 VALID 232100/232300 LEVA
LECB BARCELONA FIR/UIR EMBD TS OBS AT 2043Z W OF LINE N4240 E00110 - N4020 W00040 TOP FL400 MOV NE NC=



MET'MAP, la Météo Aéronautique d'un coup d'oeil ! - Copyright ORBIFLY Décembre 2007 - Disclaimer

ORBIFLY MET'MAP TEAM :

Programmation & Développement : Alexandra Zaïnal
Conception & Développement : Baudouin d'Aumeries
Co-Programmation & Développement : Marc-Olivier Méhu
Soutien technique & logistique : Manuel Goepfert

Contact : metmap@orbifly.com




SOURCES & CREDITS :

   NOAA